createdAt,value
2018-09-26T00:01:58.823Z,8.70
2018-09-26T00:04:27.712Z,8.80
2018-09-26T00:06:56.102Z,8.70
2018-09-26T00:09:24.317Z,8.80
2018-09-26T00:11:52.040Z,8.80
2018-09-26T00:14:19.937Z,8.80
2018-09-26T00:16:47.660Z,8.80
2018-09-26T00:19:15.413Z,8.70
2018-09-26T00:21:43.162Z,8.50
2018-09-26T00:24:11.036Z,8.50
2018-09-26T00:26:38.732Z,8.40
2018-09-26T00:29:06.471Z,8.40
2018-09-26T00:31:34.200Z,8.50
2018-09-26T00:34:01.998Z,8.50
2018-09-26T00:36:29.773Z,8.40
2018-09-26T00:38:57.483Z,8.40
2018-09-26T00:41:25.324Z,8.30
2018-09-26T00:43:53.003Z,8.20
2018-09-26T00:46:20.746Z,8.00
2018-09-26T00:48:48.445Z,7.80
2018-09-26T00:51:16.178Z,7.80
2018-09-26T00:53:43.901Z,7.70
2018-09-26T00:56:11.662Z,7.40
2018-09-26T00:58:39.421Z,7.40
2018-09-26T01:01:07.197Z,7.30
2018-09-26T01:03:34.916Z,7.10
2018-09-26T01:06:03.122Z,7.00
2018-09-26T01:08:30.821Z,7.00
2018-09-26T01:10:58.552Z,7.00
2018-09-26T01:13:26.268Z,6.90
2018-09-26T01:15:54.021Z,6.80
2018-09-26T01:18:21.742Z,6.60
2018-09-26T01:20:49.696Z,6.50
2018-09-26T01:23:17.478Z,6.50
2018-09-26T01:25:45.221Z,6.40
2018-09-26T01:28:13.390Z,6.50
2018-09-26T01:30:41.141Z,6.40
2018-09-26T01:33:08.853Z,6.20
2018-09-26T01:35:36.582Z,6.10
2018-09-26T01:38:04.313Z,6.00
2018-09-26T01:40:32.022Z,6.00
2018-09-26T01:42:59.758Z,6.00
2018-09-26T01:45:27.505Z,5.80
2018-09-26T01:47:55.250Z,5.70
2018-09-26T01:50:22.975Z,5.80
2018-09-26T01:52:50.838Z,5.70
2018-09-26T01:55:18.561Z,5.70
2018-09-26T01:57:46.424Z,5.50
2018-09-26T02:00:14.130Z,5.40
2018-09-26T02:02:41.878Z,5.40
2018-09-26T02:05:09.616Z,5.40
2018-09-26T02:07:37.379Z,5.40
2018-09-26T02:10:05.441Z,5.40
2018-09-26T02:12:33.245Z,5.30
2018-09-26T02:15:01.565Z,5.10
2018-09-26T02:17:29.294Z,5.10
2018-09-26T02:19:57.013Z,5.10
2018-09-26T02:22:25.757Z,5.00
2018-09-26T02:24:55.566Z,5.00
2018-09-26T02:27:24.310Z,4.90
2018-09-26T02:29:53.286Z,4.80
2018-09-26T02:32:21.956Z,4.70
2018-09-26T02:34:51.647Z,4.80
2018-09-26T02:37:19.916Z,4.60
2018-09-26T02:39:48.773Z,4.60
2018-09-26T02:42:18.210Z,4.50
2018-09-26T02:44:47.680Z,4.60
2018-09-26T02:47:16.970Z,4.50
2018-09-26T02:49:44.885Z,4.40
2018-09-26T02:52:13.149Z,4.40
2018-09-26T02:54:40.890Z,4.40
2018-09-26T02:57:09.889Z,4.40
2018-09-26T02:59:38.208Z,4.30
2018-09-26T03:02:07.172Z,4.20
2018-09-26T03:04:35.858Z,4.20
2018-09-26T03:07:05.183Z,4.20
2018-09-26T03:09:33.925Z,4.20
2018-09-26T03:12:03.030Z,4.20
2018-09-26T03:14:32.765Z,4.20
2018-09-26T03:17:02.027Z,4.10
2018-09-26T03:19:31.296Z,4.10
2018-09-26T03:21:59.405Z,4.20
2018-09-26T03:24:27.575Z,4.10
2018-09-26T03:26:57.172Z,4.20
2018-09-26T03:29:26.500Z,4.10
2018-09-26T03:31:54.943Z,4.10
2018-09-26T03:34:25.384Z,4.20
2018-09-26T03:36:54.406Z,4.20
2018-09-26T03:39:23.076Z,4.20
2018-09-26T03:41:50.909Z,4.10
2018-09-26T03:44:18.722Z,4.10
2018-09-26T03:46:46.467Z,4.10
2018-09-26T03:49:14.222Z,4.10
2018-09-26T03:51:43.816Z,4.10
2018-09-26T03:54:13.861Z,4.00
2018-09-26T03:56:43.881Z,3.90
2018-09-26T03:59:12.597Z,4.00
2018-09-26T04:01:40.937Z,4.00
2018-09-26T04:04:09.977Z,4.00
2018-09-26T04:06:39.116Z,4.10
2018-09-26T04:09:08.591Z,4.10
2018-09-26T04:11:37.855Z,4.00
2018-09-26T04:14:05.725Z,4.00
2018-09-26T04:16:34.872Z,3.90
2018-09-26T04:19:04.255Z,4.00
2018-09-26T04:21:34.197Z,4.00
2018-09-26T04:24:03.523Z,3.90
2018-09-26T04:26:32.117Z,4.10
2018-09-26T04:29:01.832Z,4.10
2018-09-26T04:31:29.598Z,4.10
2018-09-26T04:33:57.497Z,4.00
2018-09-26T04:36:25.093Z,4.00
2018-09-26T04:38:52.986Z,4.00
2018-09-26T04:41:20.573Z,3.90
2018-09-26T04:43:48.320Z,3.90
2018-09-26T04:46:16.030Z,3.90
2018-09-26T04:48:44.614Z,3.90
2018-09-26T04:51:12.590Z,3.90
2018-09-26T04:53:42.078Z,3.80
2018-09-26T04:56:10.410Z,3.80
2018-09-26T04:58:38.393Z,3.80
2018-09-26T05:01:06.179Z,3.80
2018-09-26T05:03:33.931Z,3.90
2018-09-26T05:06:01.647Z,3.80
2018-09-26T05:08:30.026Z,3.80
2018-09-26T05:10:58.180Z,3.80
2018-09-26T05:13:26.676Z,3.80
2018-09-26T05:15:56.304Z,3.80
2018-09-26T05:18:24.709Z,3.80
2018-09-26T05:20:53.675Z,3.70
2018-09-26T05:23:22.258Z,3.70
2018-09-26T05:25:49.985Z,3.80
2018-09-26T05:28:18.877Z,3.70
2018-09-26T05:30:48.224Z,3.70
2018-09-26T05:33:16.269Z,3.70
2018-09-26T05:35:44.942Z,3.70
2018-09-26T05:38:13.304Z,3.80
2018-09-26T05:40:43.205Z,3.80
2018-09-26T05:43:12.211Z,3.80
2018-09-26T05:45:42.530Z,3.80
2018-09-26T05:48:11.184Z,3.80
2018-09-26T05:50:40.549Z,3.80
2018-09-26T05:53:10.823Z,3.80
2018-09-26T05:55:39.529Z,3.90
2018-09-26T05:58:08.090Z,3.90
2018-09-26T06:00:37.981Z,4.00
2018-09-26T06:03:07.309Z,4.00
2018-09-26T06:05:35.841Z,4.00
2018-09-26T06:08:03.641Z,4.10
2018-09-26T06:10:31.723Z,4.20
2018-09-26T06:13:00.315Z,4.30
2018-09-26T06:15:29.264Z,4.30
2018-09-26T06:17:59.084Z,4.30
2018-09-26T06:20:26.894Z,4.40
2018-09-26T06:22:55.364Z,5.20
2018-09-26T06:25:23.756Z,9.00
2018-09-26T06:27:54.101Z,11.80
2018-09-26T06:30:22.851Z,13.10
2018-09-26T06:32:51.026Z,14.60
2018-09-26T06:35:19.811Z,15.50
2018-09-26T06:37:48.774Z,16.00
2018-09-26T06:40:17.481Z,16.00
2018-09-26T06:42:47.370Z,17.30
2018-09-26T06:45:15.880Z,17.30
2018-09-26T06:47:43.601Z,17.30
2018-09-26T06:50:12.330Z,17.70
2018-09-26T06:52:40.739Z,18.50
2018-09-26T06:55:10.483Z,19.70
2018-09-26T06:57:39.062Z,20.10
2018-09-26T07:00:08.958Z,19.50
2018-09-26T07:02:37.649Z,20.00
2018-09-26T07:05:05.939Z,20.30
2018-09-26T07:07:34.764Z,20.20
2018-09-26T07:10:03.844Z,21.30
2018-09-26T07:12:32.458Z,20.40
2018-09-26T07:15:01.230Z,20.20
2018-09-26T07:17:30.427Z,19.90
2018-09-26T07:19:58.198Z,21.90
2018-09-26T07:22:26.118Z,22.10
2018-09-26T07:24:54.636Z,23.10
2018-09-26T07:27:24.255Z,20.60
2018-09-26T07:29:52.200Z,20.30
2018-09-26T07:32:20.618Z,21.20
2018-09-26T07:34:49.010Z,19.30
2018-09-26T07:37:16.836Z,21.40
2018-09-26T07:39:45.586Z,22.00
2018-09-26T07:42:14.295Z,23.80
2018-09-26T07:44:43.590Z,19.50
2018-09-26T07:47:11.833Z,19.70
2018-09-26T07:49:40.054Z,20.80
2018-09-26T07:52:08.821Z,20.50
2018-09-26T07:54:37.121Z,21.80
2018-09-26T07:57:06.066Z,22.50
2018-09-26T07:59:35.095Z,23.90
2018-09-26T08:02:03.470Z,23.10
2018-09-26T08:04:32.500Z,24.60
2018-09-26T08:07:01.448Z,24.40
2018-09-26T08:09:31.088Z,24.50
2018-09-26T08:11:59.549Z,24.80
2018-09-26T08:14:27.425Z,23.40
2018-09-26T08:16:56.177Z,23.80
2018-09-26T08:19:24.978Z,24.10
2018-09-26T08:21:53.970Z,22.60
2018-09-26T08:24:22.480Z,22.60
2018-09-26T08:26:51.160Z,22.50
2018-09-26T08:29:21.070Z,25.70
2018-09-26T08:31:50.082Z,26.90
2018-09-26T08:34:17.810Z,24.60
2018-09-26T08:36:46.475Z,23.60
2018-09-26T08:39:14.785Z,25.10
2018-09-26T08:41:44.348Z,25.50
2018-09-26T08:44:12.959Z,24.80
2018-09-26T08:46:40.985Z,26.80
2018-09-26T08:49:08.729Z,25.30
2018-09-26T08:51:36.465Z,27.20
2018-09-26T08:54:04.277Z,28.30
2018-09-26T08:56:32.110Z,28.10
2018-09-26T08:59:00.353Z,26.60
2018-09-26T09:01:33.442Z,25.30
2018-09-26T09:04:01.230Z,26.20
2018-09-26T09:06:29.049Z,24.30
2018-09-26T09:08:56.789Z,26.20
2018-09-26T09:11:24.498Z,27.20
2018-09-26T09:13:52.237Z,27.70
2018-09-26T09:16:19.941Z,27.40
2018-09-26T09:18:48.162Z,28.30
2018-09-26T09:21:15.890Z,27.30
2018-09-26T09:23:43.717Z,26.90
2018-09-26T09:26:12.007Z,25.70
2018-09-26T09:28:39.780Z,26.60
2018-09-26T09:31:07.502Z,25.60
2018-09-26T09:33:35.238Z,24.20
2018-09-26T09:36:02.953Z,24.80
2018-09-26T09:38:31.116Z,27.10
2018-09-26T09:40:58.826Z,25.50
2018-09-26T09:43:26.534Z,28.10
2018-09-26T09:45:54.334Z,28.10
2018-09-26T09:48:22.066Z,27.70
2018-09-26T09:50:49.925Z,28.10
2018-09-26T09:53:19.185Z,27.80
2018-09-26T09:55:48.202Z,24.70
2018-09-26T09:58:15.967Z,24.40
2018-09-26T10:00:49.107Z,26.50
2018-09-26T10:03:17.102Z,26.30
2018-09-26T10:05:44.877Z,25.20
2018-09-26T10:08:12.796Z,26.30
2018-09-26T10:10:40.541Z,26.70
2018-09-26T10:13:08.274Z,28.50
2018-09-26T10:15:36.018Z,25.70
2018-09-26T10:18:03.751Z,26.20
2018-09-26T10:20:31.554Z,25.70
2018-09-26T10:22:59.311Z,25.90
2018-09-26T10:25:27.518Z,27.80
2018-09-26T10:27:55.492Z,25.80
2018-09-26T10:30:23.358Z,24.50
2018-09-26T10:32:51.082Z,26.00
2018-09-26T10:35:18.813Z,27.30
2018-09-26T10:37:46.521Z,26.70
2018-09-26T10:40:14.545Z,27.00
2018-09-26T10:42:42.253Z,25.60
2018-09-26T10:45:10.422Z,27.40
2018-09-26T10:47:38.530Z,28.60
2018-09-26T10:50:06.476Z,25.10
2018-09-26T10:52:34.309Z,28.10
2018-09-26T10:55:02.074Z,27.40
2018-09-26T10:57:29.861Z,27.40
2018-09-26T10:59:57.735Z,26.50
2018-09-26T11:02:25.503Z,26.70
2018-09-26T11:04:53.626Z,27.50
2018-09-26T11:07:21.961Z,25.60
2018-09-26T11:09:49.712Z,24.70
2018-09-26T11:12:17.939Z,25.20
2018-09-26T11:14:45.652Z,24.00
2018-09-26T11:17:15.838Z,24.50
2018-09-26T11:19:44.767Z,24.70
2018-09-26T11:22:14.021Z,22.80
2018-09-26T11:24:43.682Z,23.40
2018-09-26T11:27:11.754Z,24.20
2018-09-26T11:29:40.325Z,24.80
2018-09-26T11:32:10.232Z,23.20
2018-09-26T11:34:39.708Z,24.80
2018-09-26T11:37:08.393Z,24.20
2018-09-26T11:39:37.264Z,23.80
2018-09-26T11:42:06.379Z,23.00
2018-09-26T11:44:34.308Z,23.40
2018-09-26T11:47:03.393Z,23.10
2018-09-26T11:49:32.435Z,23.50
2018-09-26T11:52:00.242Z,22.70
2018-09-26T11:54:29.215Z,23.30
2018-09-26T11:56:58.446Z,24.60
2018-09-26T11:59:27.856Z,24.80
2018-09-26T12:01:56.770Z,24.70
2018-09-26T12:04:25.117Z,24.90
2018-09-26T12:06:54.704Z,25.00
2018-09-26T12:09:23.272Z,25.00
2018-09-26T12:11:51.049Z,24.40
2018-09-26T12:14:18.791Z,24.70
2018-09-26T12:16:46.524Z,24.00
2018-09-26T12:19:14.278Z,24.00
2018-09-26T12:21:42.073Z,23.40
2018-09-26T12:24:09.793Z,23.10
2018-09-26T12:26:37.515Z,22.70
2018-09-26T12:29:05.289Z,22.40
2018-09-26T12:31:33.019Z,23.20
2018-09-26T12:34:00.733Z,23.30
2018-09-26T12:36:30.496Z,23.30
2018-09-26T12:38:59.838Z,22.70
2018-09-26T12:41:28.944Z,21.90
2018-09-26T12:43:56.970Z,22.20
2018-09-26T12:46:25.742Z,22.00
2018-09-26T12:48:55.480Z,22.60
2018-09-26T12:51:23.984Z,21.80
2018-09-26T12:53:51.863Z,21.70
2018-09-26T12:56:21.020Z,21.90
2018-09-26T12:58:50.207Z,22.60
2018-09-26T13:01:18.665Z,22.30
2018-09-26T13:03:48.288Z,21.90
2018-09-26T13:06:17.584Z,22.10
2018-09-26T13:08:46.010Z,22.40
2018-09-26T13:11:13.777Z,22.20
2018-09-26T13:13:41.541Z,22.30
2018-09-26T13:16:10.350Z,22.50
2018-09-26T13:18:38.474Z,22.40
2018-09-26T13:21:07.203Z,21.70
2018-09-26T13:23:35.961Z,21.80
2018-09-26T13:26:04.705Z,22.00
2018-09-26T13:28:34.055Z,22.70
2018-09-26T13:31:02.615Z,22.60
2018-09-26T13:33:31.230Z,22.60
2018-09-26T13:35:58.990Z,22.30
2018-09-26T13:38:28.071Z,22.10
2018-09-26T13:40:57.653Z,22.00
2018-09-26T13:43:27.982Z,22.00
2018-09-26T13:45:56.374Z,22.30
2018-09-26T13:48:24.319Z,22.20
2018-09-26T13:50:52.269Z,22.20
2018-09-26T13:53:20.627Z,22.00
2018-09-26T13:55:49.006Z,22.10
2018-09-26T13:58:16.790Z,22.20
2018-09-26T14:00:44.923Z,22.40
2018-09-26T14:03:13.220Z,22.70
2018-09-26T14:05:41.801Z,22.20
2018-09-26T14:08:11.102Z,21.70
2018-09-26T14:10:39.520Z,22.00
2018-09-26T14:13:07.563Z,21.80
2018-09-26T14:15:36.412Z,21.60
2018-09-26T14:18:08.490Z,21.70
2018-09-26T14:20:37.609Z,21.60
2018-09-26T14:23:06.327Z,21.30
2018-09-26T14:25:35.309Z,21.40
2018-09-26T14:28:03.672Z,21.30
2018-09-26T14:30:33.238Z,21.40
2018-09-26T14:33:01.091Z,21.50
2018-09-26T14:35:30.601Z,21.30
2018-09-26T14:37:59.903Z,21.40
2018-09-26T14:40:28.920Z,21.50
2018-09-26T14:42:59.339Z,21.20
2018-09-26T14:45:28.336Z,21.00
2018-09-26T14:47:57.461Z,21.10
2018-09-26T14:50:27.753Z,21.10
2018-09-26T14:52:57.434Z,21.10
2018-09-26T14:55:26.975Z,21.20
2018-09-26T14:57:56.311Z,21.10
2018-09-26T15:00:24.264Z,21.00
2018-09-26T15:02:51.977Z,21.10
2018-09-26T15:05:19.721Z,21.40
2018-09-26T15:07:47.462Z,21.70
2018-09-26T15:10:15.237Z,21.90
2018-09-26T15:12:42.989Z,22.30
2018-09-26T15:15:11.833Z,21.90
2018-09-26T15:17:40.604Z,21.80
2018-09-26T15:20:10.806Z,21.40
2018-09-26T15:22:39.681Z,21.10
2018-09-26T15:25:08.490Z,20.90
2018-09-26T15:27:36.894Z,20.90
2018-09-26T15:30:05.757Z,20.90
2018-09-26T15:32:33.751Z,21.00
2018-09-26T15:35:03.076Z,20.70
2018-09-26T15:37:31.330Z,20.70
2018-09-26T15:39:59.605Z,20.70
2018-09-26T15:42:28.551Z,20.50
2018-09-26T15:44:58.034Z,20.00
2018-09-26T15:47:26.158Z,19.80
2018-09-26T15:49:54.130Z,19.60
2018-09-26T15:52:22.105Z,19.50
2018-09-26T15:54:50.191Z,19.30
2018-09-26T15:57:17.929Z,19.10
2018-09-26T15:59:45.657Z,19.10
2018-09-26T16:02:13.454Z,19.20
2018-09-26T16:04:41.190Z,19.40
2018-09-26T16:07:08.946Z,19.30
2018-09-26T16:09:36.684Z,19.20
2018-09-26T16:12:04.477Z,18.70
2018-09-26T16:14:32.257Z,18.40
2018-09-26T16:16:59.998Z,18.20
2018-09-26T16:19:27.778Z,17.80
2018-09-26T16:21:55.514Z,17.60
2018-09-26T16:24:23.434Z,17.30
2018-09-26T16:26:51.103Z,17.20
2018-09-26T16:29:18.885Z,17.10
2018-09-26T16:31:46.701Z,17.20
2018-09-26T16:34:14.858Z,17.10
2018-09-26T16:36:42.594Z,17.20
2018-09-26T16:39:12.117Z,17.10
2018-09-26T16:41:39.838Z,16.90
2018-09-26T16:44:07.654Z,16.70
2018-09-26T16:46:35.892Z,16.70
2018-09-26T16:49:03.685Z,16.60
2018-09-26T16:51:31.431Z,16.50
2018-09-26T16:53:59.166Z,16.40
2018-09-26T16:56:26.949Z,16.30
2018-09-26T16:58:54.683Z,16.20
2018-09-26T17:01:22.426Z,16.10
2018-09-26T17:03:50.138Z,15.90
2018-09-26T17:06:17.934Z,15.70
2018-09-26T17:08:45.781Z,15.70
2018-09-26T17:11:13.881Z,15.60
2018-09-26T17:13:42.070Z,15.60
2018-09-26T17:16:09.827Z,15.50
2018-09-26T17:18:37.547Z,15.40
2018-09-26T17:21:05.350Z,15.20
2018-09-26T17:23:35.765Z,15.00
2018-09-26T17:26:05.341Z,14.80
2018-09-26T17:28:35.202Z,14.80
2018-09-26T17:31:03.291Z,14.70
2018-09-26T17:33:32.292Z,14.50
2018-09-26T17:36:00.347Z,14.40
2018-09-26T17:38:30.893Z,14.20
2018-09-26T17:41:00.030Z,14.00
2018-09-26T17:43:29.545Z,14.00
2018-09-26T17:45:57.813Z,13.80
2018-09-26T17:48:27.033Z,13.80
2018-09-26T17:50:55.803Z,13.60
2018-09-26T17:53:25.268Z,13.50
2018-09-26T17:55:55.164Z,13.40
2018-09-26T17:58:23.019Z,13.20
2018-09-26T18:00:52.677Z,13.10
2018-09-26T18:03:20.589Z,13.00
2018-09-26T18:05:48.296Z,12.90
2018-09-26T18:08:16.041Z,12.80
2018-09-26T18:10:43.789Z,12.80
2018-09-26T18:13:11.542Z,12.70
2018-09-26T18:15:40.498Z,12.60
2018-09-26T18:18:09.220Z,12.50
2018-09-26T18:20:38.731Z,12.40
2018-09-26T18:23:06.762Z,12.40
2018-09-26T18:25:37.658Z,12.30
2018-09-26T18:28:06.456Z,12.20
2018-09-26T18:30:35.797Z,12.10
2018-09-26T18:33:05.822Z,12.00
2018-09-26T18:35:33.594Z,12.00
2018-09-26T18:38:02.384Z,11.90
2018-09-26T18:40:31.242Z,11.80
2018-09-26T18:43:00.185Z,11.80
2018-09-26T18:47:01.111Z,11.60
2018-09-26T18:49:30.103Z,11.50
2018-09-26T18:51:59.741Z,11.40
2018-09-26T18:54:28.574Z,11.40
2018-09-26T18:56:57.499Z,11.40
2018-09-26T18:59:26.582Z,11.30
2018-09-26T19:01:54.774Z,11.40
2018-09-26T19:04:23.241Z,11.40
2018-09-26T19:06:51.401Z,11.30
2018-09-26T19:09:19.222Z,11.40
2018-09-26T19:11:47.498Z,11.20
2018-09-26T19:14:15.843Z,11.10
2018-09-26T19:16:44.193Z,11.10
2018-09-26T19:19:14.297Z,11.00
2018-09-26T19:21:43.024Z,10.90
2018-09-26T19:24:12.110Z,10.90
2018-09-26T19:26:42.148Z,11.00
2018-09-26T19:29:10.105Z,10.90
2018-09-26T19:31:38.635Z,10.90
2018-09-26T19:34:07.585Z,11.00
2018-09-26T19:36:36.763Z,10.90
2018-09-26T19:39:07.242Z,10.80
2018-09-26T19:41:36.989Z,10.90
2018-09-26T19:44:08.894Z,10.80
2018-09-26T19:46:39.192Z,10.60
2018-09-26T19:49:09.699Z,10.70
2018-09-26T19:51:38.847Z,10.70
2018-09-26T19:54:07.770Z,10.60
2018-09-26T19:56:38.295Z,10.50
2018-09-26T19:59:06.176Z,10.50
2018-09-26T20:01:33.913Z,10.50
2018-09-26T20:04:01.617Z,10.50
2018-09-26T20:06:29.353Z,10.50
2018-09-26T20:08:57.071Z,10.40
2018-09-26T20:11:24.816Z,10.40
2018-09-26T20:13:52.712Z,10.40
2018-09-26T20:16:20.498Z,10.40
2018-09-26T20:18:48.217Z,10.30
2018-09-26T20:21:16.038Z,10.20
2018-09-26T20:23:43.782Z,10.30
2018-09-26T20:26:11.688Z,10.30
2018-09-26T20:28:39.500Z,10.30
2018-09-26T20:31:07.619Z,10.20
2018-09-26T20:33:35.261Z,10.20
2018-09-26T20:36:03.029Z,10.10
2018-09-26T20:38:30.761Z,10.10
2018-09-26T20:40:58.525Z,10.00
2018-09-26T20:43:26.941Z,10.00
2018-09-26T20:45:54.809Z,10.00
2018-09-26T20:48:22.570Z,10.00
2018-09-26T20:50:50.305Z,10.00
2018-09-26T20:53:18.100Z,10.00
2018-09-26T20:55:45.858Z,9.90
2018-09-26T20:58:13.598Z,10.00
2018-09-26T21:00:41.399Z,9.90
2018-09-26T21:03:09.061Z,9.90
2018-09-26T21:05:36.757Z,9.90
2018-09-26T21:08:04.493Z,9.90
2018-09-26T21:10:32.234Z,9.90
2018-09-26T21:12:59.957Z,9.90
2018-09-26T21:15:27.697Z,9.80
2018-09-26T21:17:55.481Z,9.70
2018-09-26T21:20:23.689Z,9.80
2018-09-26T21:22:51.725Z,9.80
2018-09-26T21:25:19.434Z,9.70
2018-09-26T21:27:47.157Z,9.70
2018-09-26T21:30:14.873Z,9.70
2018-09-26T21:32:42.622Z,9.70
2018-09-26T21:35:10.326Z,9.70
2018-09-26T21:37:38.033Z,9.60
2018-09-26T21:40:05.781Z,9.60
2018-09-26T21:42:33.589Z,9.60
2018-09-26T21:45:01.318Z,9.40
2018-09-26T21:47:29.017Z,9.40
2018-09-26T21:49:57.063Z,9.50
2018-09-26T21:52:25.643Z,9.50
2018-09-26T21:54:53.438Z,9.50
2018-09-26T21:57:21.257Z,9.40
2018-09-26T21:59:49.000Z,9.30
2018-09-26T22:02:16.725Z,9.30
2018-09-26T22:04:44.497Z,9.10
2018-09-26T22:07:12.238Z,9.10
2018-09-26T22:09:40.686Z,9.10
2018-09-26T22:12:08.409Z,9.00
2018-09-26T22:14:36.153Z,9.00
2018-09-26T22:17:03.853Z,9.00
2018-09-26T22:19:31.617Z,8.90
2018-09-26T22:21:59.318Z,8.80
2018-09-26T22:24:27.010Z,8.80
2018-09-26T22:26:54.738Z,8.70
2018-09-26T22:29:22.557Z,8.70
2018-09-26T22:31:50.323Z,8.60
2018-09-26T22:34:18.050Z,8.70
2018-09-26T22:36:45.808Z,8.60
2018-09-26T22:39:13.542Z,8.70
2018-09-26T22:41:41.278Z,8.70
2018-09-26T22:44:09.012Z,8.60
2018-09-26T22:46:36.743Z,8.60
2018-09-26T22:49:04.446Z,8.50
2018-09-26T22:51:32.229Z,8.60
2018-09-26T22:53:59.942Z,8.50
2018-09-26T22:56:27.677Z,8.50
2018-09-26T22:58:55.473Z,8.50
2018-09-26T23:01:24.058Z,8.50
2018-09-26T23:03:51.753Z,8.50
2018-09-26T23:14:43.822Z,8.30
2018-09-26T23:19:56.381Z,8.40
2018-09-26T23:22:24.120Z,8.40
2018-09-26T23:24:51.834Z,8.30
2018-09-26T23:27:19.598Z,8.30
2018-09-26T23:29:47.468Z,8.20
2018-09-26T23:32:15.194Z,8.10
2018-09-26T23:34:42.933Z,8.00
2018-09-26T23:37:11.129Z,7.90
2018-09-26T23:39:38.864Z,7.90
2018-09-26T23:42:07.041Z,8.00
2018-09-26T23:44:34.781Z,8.00
2018-09-26T23:47:02.520Z,8.00
2018-09-26T23:49:30.258Z,8.00
2018-09-26T23:51:57.976Z,8.00
2018-09-26T23:54:25.808Z,8.00
2018-09-26T23:56:53.549Z,7.90
2018-09-26T23:59:21.349Z,7.80
